sensor_id;sensor_type;location;lat;lon;timestamp;P1;durP1;ratioP1;P2;durP2;ratioP2
15629;SDS011;7914;50.842;0.166;2022-09-13T00:00:39;7.73;;;5.10;;
15629;SDS011;7914;50.842;0.166;2022-09-13T00:03:06;8.10;;;5.47;;
15629;SDS011;7914;50.842;0.166;2022-09-13T00:05:34;6.23;;;5.13;;
15629;SDS011;7914;50.842;0.166;2022-09-13T00:08:00;7.03;;;5.83;;
15629;SDS011;7914;50.842;0.166;2022-09-13T00:10:26;8.20;;;5.70;;
15629;SDS011;7914;50.842;0.166;2022-09-13T00:12:51;9.13;;;5.80;;
15629;SDS011;7914;50.842;0.166;2022-09-13T00:15:18;7.47;;;5.20;;
15629;SDS011;7914;50.842;0.166;2022-09-13T00:17:44;8.17;;;5.73;;
15629;SDS011;7914;50.842;0.166;2022-09-13T00:20:10;7.63;;;5.63;;
15629;SDS011;7914;50.842;0.166;2022-09-13T00:22:36;7.60;;;6.00;;
15629;SDS011;7914;50.842;0.166;2022-09-13T00:25:03;7.57;;;5.90;;
15629;SDS011;7914;50.842;0.166;2022-09-13T00:27:31;8.00;;;6.17;;
15629;SDS011;7914;50.842;0.166;2022-09-13T00:29:57;8.10;;;5.63;;
15629;SDS011;7914;50.842;0.166;2022-09-13T00:32:23;14.10;;;6.17;;
15629;SDS011;7914;50.842;0.166;2022-09-13T00:34:48;8.80;;;6.90;;
15629;SDS011;7914;50.842;0.166;2022-09-13T00:37:14;8.93;;;6.27;;
15629;SDS011;7914;50.842;0.166;2022-09-13T00:39:40;8.80;;;6.50;;
15629;SDS011;7914;50.842;0.166;2022-09-13T00:42:08;11.20;;;6.17;;
15629;SDS011;7914;50.842;0.166;2022-09-13T00:44:46;9.23;;;6.90;;
15629;SDS011;7914;50.842;0.166;2022-09-13T00:47:14;9.27;;;6.97;;
15629;SDS011;7914;50.842;0.166;2022-09-13T00:49:43;10.07;;;6.80;;
15629;SDS011;7914;50.842;0.166;2022-09-13T00:52:13;8.10;;;6.33;;
15629;SDS011;7914;50.842;0.166;2022-09-13T00:54:43;8.87;;;6.60;;
15629;SDS011;7914;50.842;0.166;2022-09-13T00:57:22;9.70;;;6.23;;
15629;SDS011;7914;50.842;0.166;2022-09-13T00:59:55;11.70;;;6.60;;
15629;SDS011;7914;50.842;0.166;2022-09-13T01:02:35;9.90;;;6.50;;
15629;SDS011;7914;50.842;0.166;2022-09-13T01:05:02;8.47;;;6.50;;
15629;SDS011;7914;50.842;0.166;2022-09-13T01:07:28;9.93;;;6.37;;
15629;SDS011;7914;50.842;0.166;2022-09-13T01:09:54;7.87;;;6.20;;
15629;SDS011;7914;50.842;0.166;2022-09-13T01:15:08;10.73;;;6.47;;
15629;SDS011;7914;50.842;0.166;2022-09-13T01:17:35;12.60;;;6.20;;
15629;SDS011;7914;50.842;0.166;2022-09-13T01:20:01;7.33;;;5.87;;
15629;SDS011;7914;50.842;0.166;2022-09-13T01:25:13;12.10;;;6.30;;
15629;SDS011;7914;50.842;0.166;2022-09-13T01:30:48;7.43;;;6.63;;
15629;SDS011;7914;50.842;0.166;2022-09-13T01:33:35;8.93;;;6.23;;
15629;SDS011;7914;50.842;0.166;2022-09-13T01:36:56;9.17;;;5.90;;
15629;SDS011;7914;50.842;0.166;2022-09-13T01:39:05;11.27;;;6.20;;
15629;SDS011;7914;50.842;0.166;2022-09-13T01:41:47;8.30;;;5.97;;
15629;SDS011;7914;50.842;0.166;2022-09-13T01:54:45;7.63;;;6.70;;
15629;SDS011;7914;50.842;0.166;2022-09-13T01:57:22;10.40;;;6.20;;
15629;SDS011;7914;50.842;0.166;2022-09-13T02:00:01;11.10;;;6.73;;
15629;SDS011;7914;50.842;0.166;2022-09-13T02:08:17;9.03;;;6.03;;
15629;SDS011;7914;50.842;0.166;2022-09-13T02:10:48;10.17;;;6.33;;
15629;SDS011;7914;50.842;0.166;2022-09-13T02:13:20;7.70;;;6.03;;
15629;SDS011;7914;50.842;0.166;2022-09-13T02:16:01;10.10;;;6.27;;
15629;SDS011;7914;50.842;0.166;2022-09-13T02:18:43;10.63;;;6.40;;
15629;SDS011;7914;50.842;0.166;2022-09-13T02:21:15;10.60;;;6.27;;
15629;SDS011;7914;50.842;0.166;2022-09-13T02:24:20;10.77;;;6.40;;
15629;SDS011;7914;50.842;0.166;2022-09-13T02:26:43;8.60;;;6.10;;
15629;SDS011;7914;50.842;0.166;2022-09-13T02:29:14;11.27;;;5.90;;
15629;SDS011;7914;50.842;0.166;2022-09-13T02:31:48;7.93;;;6.50;;
15629;SDS011;7914;50.842;0.166;2022-09-13T02:34:25;7.40;;;6.03;;
15629;SDS011;7914;50.842;0.166;2022-09-13T02:36:56;7.00;;;6.17;;
15629;SDS011;7914;50.842;0.166;2022-09-13T02:39:24;10.67;;;6.03;;
15629;SDS011;7914;50.842;0.166;2022-09-13T02:42:02;10.73;;;5.93;;
15629;SDS011;7914;50.842;0.166;2022-09-13T02:44:43;9.40;;;6.20;;
15629;SDS011;7914;50.842;0.166;2022-09-13T02:50:06;8.20;;;6.17;;
15629;SDS011;7914;50.842;0.166;2022-09-13T02:53:11;8.67;;;6.17;;
15629;SDS011;7914;50.842;0.166;2022-09-13T02:58:39;7.43;;;6.47;;
15629;SDS011;7914;50.842;0.166;2022-09-13T03:01:10;8.37;;;7.00;;
15629;SDS011;7914;50.842;0.166;2022-09-13T03:03:36;10.00;;;6.53;;
15629;SDS011;7914;50.842;0.166;2022-09-13T03:06:02;10.43;;;6.60;;
15629;SDS011;7914;50.842;0.166;2022-09-13T03:08:28;7.17;;;6.00;;
15629;SDS011;7914;50.842;0.166;2022-09-13T03:16:30;9.07;;;6.93;;
15629;SDS011;7914;50.842;0.166;2022-09-13T03:19:35;8.73;;;6.47;;
15629;SDS011;7914;50.842;0.166;2022-09-13T03:30:10;8.07;;;6.00;;
15629;SDS011;7914;50.842;0.166;2022-09-13T03:32:59;6.40;;;5.80;;
15629;SDS011;7914;50.842;0.166;2022-09-13T03:38:20;6.90;;;6.20;;
15629;SDS011;7914;50.842;0.166;2022-09-13T03:40:52;8.60;;;6.27;;
15629;SDS011;7914;50.842;0.166;2022-09-13T03:43:22;8.10;;;5.50;;
15629;SDS011;7914;50.842;0.166;2022-09-13T03:45:59;7.97;;;5.83;;
15629;SDS011;7914;50.842;0.166;2022-09-13T03:48:29;9.87;;;5.83;;
15629;SDS011;7914;50.842;0.166;2022-09-13T03:50:56;6.10;;;5.50;;
15629;SDS011;7914;50.842;0.166;2022-09-13T03:53:23;8.37;;;5.70;;
15629;SDS011;7914;50.842;0.166;2022-09-13T03:55:52;7.27;;;5.57;;
15629;SDS011;7914;50.842;0.166;2022-09-13T03:58:19;6.70;;;5.40;;
15629;SDS011;7914;50.842;0.166;2022-09-13T04:00:45;6.37;;;5.20;;
15629;SDS011;7914;50.842;0.166;2022-09-13T04:03:12;6.93;;;5.00;;
15629;SDS011;7914;50.842;0.166;2022-09-13T04:05:38;6.20;;;5.43;;
15629;SDS011;7914;50.842;0.166;2022-09-13T04:08:05;7.07;;;5.30;;
15629;SDS011;7914;50.842;0.166;2022-09-13T04:10:32;8.17;;;5.30;;
15629;SDS011;7914;50.842;0.166;2022-09-13T04:12:59;7.90;;;5.13;;
15629;SDS011;7914;50.842;0.166;2022-09-13T04:15:26;7.07;;;5.27;;
15629;SDS011;7914;50.842;0.166;2022-09-13T04:17:52;8.07;;;5.53;;
15629;SDS011;7914;50.842;0.166;2022-09-13T04:20:18;7.57;;;5.20;;
15629;SDS011;7914;50.842;0.166;2022-09-13T04:22:49;8.13;;;5.27;;
15629;SDS011;7914;50.842;0.166;2022-09-13T04:25:16;8.73;;;5.30;;
15629;SDS011;7914;50.842;0.166;2022-09-13T04:27:42;7.53;;;5.20;;
15629;SDS011;7914;50.842;0.166;2022-09-13T04:30:08;7.90;;;5.10;;
15629;SDS011;7914;50.842;0.166;2022-09-13T04:32:34;7.83;;;5.30;;
15629;SDS011;7914;50.842;0.166;2022-09-13T04:34:59;7.67;;;4.97;;
15629;SDS011;7914;50.842;0.166;2022-09-13T04:37:25;6.17;;;4.83;;
15629;SDS011;7914;50.842;0.166;2022-09-13T04:39:51;6.03;;;4.90;;
15629;SDS011;7914;50.842;0.166;2022-09-13T04:42:17;6.57;;;5.50;;
15629;SDS011;7914;50.842;0.166;2022-09-13T04:44:43;6.33;;;4.90;;
15629;SDS011;7914;50.842;0.166;2022-09-13T04:47:09;8.90;;;4.63;;
15629;SDS011;7914;50.842;0.166;2022-09-13T04:49:35;7.17;;;4.83;;
15629;SDS011;7914;50.842;0.166;2022-09-13T04:52:01;5.70;;;4.60;;
15629;SDS011;7914;50.842;0.166;2022-09-13T04:54:26;6.10;;;4.33;;
15629;SDS011;7914;50.842;0.166;2022-09-13T04:56:52;6.23;;;4.70;;
15629;SDS011;7914;50.842;0.166;2022-09-13T04:59:19;8.93;;;5.50;;
15629;SDS011;7914;50.842;0.166;2022-09-13T05:01:44;7.77;;;5.07;;
15629;SDS011;7914;50.842;0.166;2022-09-13T05:04:10;5.77;;;4.63;;
15629;SDS011;7914;50.842;0.166;2022-09-13T05:06:36;8.80;;;4.93;;
15629;SDS011;7914;50.842;0.166;2022-09-13T05:09:02;5.10;;;4.43;;
15629;SDS011;7914;50.842;0.166;2022-09-13T05:11:29;5.47;;;4.40;;
15629;SDS011;7914;50.842;0.166;2022-09-13T05:13:55;6.53;;;4.60;;
15629;SDS011;7914;50.842;0.166;2022-09-13T05:16:23;5.33;;;4.73;;
15629;SDS011;7914;50.842;0.166;2022-09-13T05:18:51;7.87;;;4.87;;
15629;SDS011;7914;50.842;0.166;2022-09-13T05:21:17;5.73;;;4.90;;
15629;SDS011;7914;50.842;0.166;2022-09-13T05:23:44;6.60;;;5.03;;
15629;SDS011;7914;50.842;0.166;2022-09-13T05:26:12;7.77;;;4.97;;
15629;SDS011;7914;50.842;0.166;2022-09-13T05:28:38;6.83;;;5.43;;
15629;SDS011;7914;50.842;0.166;2022-09-13T05:31:05;7.07;;;5.50;;
15629;SDS011;7914;50.842;0.166;2022-09-13T05:33:35;8.33;;;5.83;;
15629;SDS011;7914;50.842;0.166;2022-09-13T05:36:03;7.30;;;6.07;;
15629;SDS011;7914;50.842;0.166;2022-09-13T05:38:29;9.57;;;6.00;;
15629;SDS011;7914;50.842;0.166;2022-09-13T05:40:59;8.23;;;5.70;;
15629;SDS011;7914;50.842;0.166;2022-09-13T05:43:27;6.90;;;6.10;;
15629;SDS011;7914;50.842;0.166;2022-09-13T05:46:01;8.23;;;6.70;;
15629;SDS011;7914;50.842;0.166;2022-09-13T05:48:28;9.93;;;6.67;;
15629;SDS011;7914;50.842;0.166;2022-09-13T05:50:55;9.00;;;7.43;;
15629;SDS011;7914;50.842;0.166;2022-09-13T05:53:20;8.13;;;6.70;;
15629;SDS011;7914;50.842;0.166;2022-09-13T05:55:46;8.50;;;6.30;;
15629;SDS011;7914;50.842;0.166;2022-09-13T05:58:12;11.63;;;7.83;;
15629;SDS011;7914;50.842;0.166;2022-09-13T06:00:39;8.97;;;7.53;;
15629;SDS011;7914;50.842;0.166;2022-09-13T06:03:04;9.57;;;7.70;;
15629;SDS011;7914;50.842;0.166;2022-09-13T06:05:30;10.33;;;8.20;;
15629;SDS011;7914;50.842;0.166;2022-09-13T06:07:56;13.70;;;8.63;;
15629;SDS011;7914;50.842;0.166;2022-09-13T06:10:21;9.67;;;8.17;;
15629;SDS011;7914;50.842;0.166;2022-09-13T06:12:49;10.30;;;9.07;;
15629;SDS011;7914;50.842;0.166;2022-09-13T06:15:15;10.57;;;8.93;;
15629;SDS011;7914;50.842;0.166;2022-09-13T06:17:40;11.17;;;9.10;;
15629;SDS011;7914;50.842;0.166;2022-09-13T06:20:06;11.77;;;9.17;;
15629;SDS011;7914;50.842;0.166;2022-09-13T06:22:33;11.60;;;9.40;;
15629;SDS011;7914;50.842;0.166;2022-09-13T06:24:59;10.60;;;9.17;;
15629;SDS011;7914;50.842;0.166;2022-09-13T06:27:25;10.87;;;9.60;;
15629;SDS011;7914;50.842;0.166;2022-09-13T06:29:50;13.83;;;9.87;;
15629;SDS011;7914;50.842;0.166;2022-09-13T06:32:16;12.60;;;10.33;;
15629;SDS011;7914;50.842;0.166;2022-09-13T06:34:42;12.17;;;9.47;;
15629;SDS011;7914;50.842;0.166;2022-09-13T06:37:07;13.83;;;10.40;;
15629;SDS011;7914;50.842;0.166;2022-09-13T06:39:33;14.90;;;9.93;;
15629;SDS011;7914;50.842;0.166;2022-09-13T06:41:59;12.50;;;10.33;;
15629;SDS011;7914;50.842;0.166;2022-09-13T06:44:24;11.60;;;10.50;;
15629;SDS011;7914;50.842;0.166;2022-09-13T06:46:50;13.07;;;11.43;;
15629;SDS011;7914;50.842;0.166;2022-09-13T06:49:16;13.53;;;11.07;;
15629;SDS011;7914;50.842;0.166;2022-09-13T06:51:41;14.73;;;11.30;;
15629;SDS011;7914;50.842;0.166;2022-09-13T06:54:07;12.70;;;11.33;;
15629;SDS011;7914;50.842;0.166;2022-09-13T06:56:34;13.37;;;10.70;;
15629;SDS011;7914;50.842;0.166;2022-09-13T06:59:02;12.70;;;11.40;;
15629;SDS011;7914;50.842;0.166;2022-09-13T07:01:36;15.50;;;13.90;;
15629;SDS011;7914;50.842;0.166;2022-09-13T07:04:05;13.97;;;12.57;;
15629;SDS011;7914;50.842;0.166;2022-09-13T07:06:33;13.57;;;11.73;;
15629;SDS011;7914;50.842;0.166;2022-09-13T07:09:07;14.07;;;12.30;;
15629;SDS011;7914;50.842;0.166;2022-09-13T07:11:38;14.23;;;11.50;;
15629;SDS011;7914;50.842;0.166;2022-09-13T07:14:05;13.17;;;11.67;;
15629;SDS011;7914;50.842;0.166;2022-09-13T07:16:32;13.67;;;12.27;;
15629;SDS011;7914;50.842;0.166;2022-09-13T07:19:01;13.60;;;12.30;;
15629;SDS011;7914;50.842;0.166;2022-09-13T07:21:30;14.03;;;12.63;;
15629;SDS011;7914;50.842;0.166;2022-09-13T07:23:57;15.17;;;13.60;;
15629;SDS011;7914;50.842;0.166;2022-09-13T07:26:24;14.57;;;13.23;;
15629;SDS011;7914;50.842;0.166;2022-09-13T07:28:52;15.97;;;13.70;;
15629;SDS011;7914;50.842;0.166;2022-09-13T07:31:28;15.10;;;13.53;;
15629;SDS011;7914;50.842;0.166;2022-09-13T07:33:59;14.57;;;13.30;;
15629;SDS011;7914;50.842;0.166;2022-09-13T07:36:27;18.47;;;12.97;;
15629;SDS011;7914;50.842;0.166;2022-09-13T07:38:54;15.23;;;13.57;;
15629;SDS011;7914;50.842;0.166;2022-09-13T07:41:20;13.87;;;12.47;;
15629;SDS011;7914;50.842;0.166;2022-09-13T07:43:47;13.50;;;12.27;;
15629;SDS011;7914;50.842;0.166;2022-09-13T07:46:15;14.03;;;12.63;;
15629;SDS011;7914;50.842;0.166;2022-09-13T07:48:43;14.13;;;12.50;;
15629;SDS011;7914;50.842;0.166;2022-09-13T07:51:11;15.13;;;12.67;;
15629;SDS011;7914;50.842;0.166;2022-09-13T07:53:42;14.10;;;12.77;;
15629;SDS011;7914;50.842;0.166;2022-09-13T07:56:10;12.83;;;11.67;;
15629;SDS011;7914;50.842;0.166;2022-09-13T07:58:37;13.43;;;12.13;;
15629;SDS011;7914;50.842;0.166;2022-09-13T08:03:57;13.20;;;11.90;;
15629;SDS011;7914;50.842;0.166;2022-09-13T08:06:25;12.90;;;11.60;;
15629;SDS011;7914;50.842;0.166;2022-09-13T08:08:52;12.83;;;11.70;;
15629;SDS011;7914;50.842;0.166;2022-09-13T08:11:20;12.57;;;11.30;;
15629;SDS011;7914;50.842;0.166;2022-09-13T08:13:47;13.53;;;11.60;;
15629;SDS011;7914;50.842;0.166;2022-09-13T08:16:15;13.53;;;12.10;;
15629;SDS011;7914;50.842;0.166;2022-09-13T08:18:46;12.80;;;11.50;;
15629;SDS011;7914;50.842;0.166;2022-09-13T08:21:16;12.90;;;11.60;;
15629;SDS011;7914;50.842;0.166;2022-09-13T08:23:42;12.80;;;11.60;;
15629;SDS011;7914;50.842;0.166;2022-09-13T08:26:09;12.93;;;11.73;;
15629;SDS011;7914;50.842;0.166;2022-09-13T08:28:35;14.97;;;13.33;;
15629;SDS011;7914;50.842;0.166;2022-09-13T08:31:06;15.33;;;13.70;;
15629;SDS011;7914;50.842;0.166;2022-09-13T08:33:36;15.33;;;14.03;;
15629;SDS011;7914;50.842;0.166;2022-09-13T08:36:02;14.60;;;13.10;;
15629;SDS011;7914;50.842;0.166;2022-09-13T08:38:29;13.33;;;12.13;;
15629;SDS011;7914;50.842;0.166;2022-09-13T08:41:00;12.80;;;11.80;;
15629;SDS011;7914;50.842;0.166;2022-09-13T08:43:42;12.23;;;11.13;;
15629;SDS011;7914;50.842;0.166;2022-09-13T08:48:49;12.77;;;11.60;;
15629;SDS011;7914;50.842;0.166;2022-09-13T08:52:04;11.50;;;10.47;;
15629;SDS011;7914;50.842;0.166;2022-09-13T08:54:10;11.53;;;10.63;;
15629;SDS011;7914;50.842;0.166;2022-09-13T08:56:43;10.93;;;9.93;;
15629;SDS011;7914;50.842;0.166;2022-09-13T09:02:12;11.10;;;10.20;;
15629;SDS011;7914;50.842;0.166;2022-09-13T09:05:17;10.03;;;9.13;;
15629;SDS011;7914;50.842;0.166;2022-09-13T09:08:05;9.23;;;8.43;;
15629;SDS011;7914;50.842;0.166;2022-09-13T09:10:45;8.70;;;7.80;;
15629;SDS011;7914;50.842;0.166;2022-09-13T09:15:49;9.30;;;8.30;;
15629;SDS011;7914;50.842;0.166;2022-09-13T09:18:23;8.40;;;7.70;;
15629;SDS011;7914;50.842;0.166;2022-09-13T09:20:54;11.00;;;7.40;;
15629;SDS011;7914;50.842;0.166;2022-09-13T09:28:54;8.27;;;7.50;;
15629;SDS011;7914;50.842;0.166;2022-09-13T09:31:28;10.03;;;6.83;;
15629;SDS011;7914;50.842;0.166;2022-09-13T09:34:10;6.97;;;6.37;;
15629;SDS011;7914;50.842;0.166;2022-09-13T09:39:41;6.77;;;5.80;;
15629;SDS011;7914;50.842;0.166;2022-09-13T09:42:12;9.07;;;6.63;;
15629;SDS011;7914;50.842;0.166;2022-09-13T09:44:56;8.70;;;6.30;;
15629;SDS011;7914;50.842;0.166;2022-09-13T09:47:28;7.17;;;6.57;;
15629;SDS011;7914;50.842;0.166;2022-09-13T09:50:16;6.70;;;6.10;;
15629;SDS011;7914;50.842;0.166;2022-09-13T09:52:47;7.30;;;6.60;;
15629;SDS011;7914;50.842;0.166;2022-09-13T09:55:41;7.87;;;6.70;;
15629;SDS011;7914;50.842;0.166;2022-09-13T09:58:11;9.10;;;6.30;;
15629;SDS011;7914;50.842;0.166;2022-09-13T10:03:20;6.20;;;5.67;;
15629;SDS011;7914;50.842;0.166;2022-09-13T10:06:11;6.43;;;5.83;;
15629;SDS011;7914;50.842;0.166;2022-09-13T10:08:42;7.60;;;6.03;;
15629;SDS011;7914;50.842;0.166;2022-09-13T10:11:19;6.07;;;5.47;;
15629;SDS011;7914;50.842;0.166;2022-09-13T10:14:00;7.37;;;6.67;;
15629;SDS011;7914;50.842;0.166;2022-09-13T10:16:27;8.50;;;5.97;;
15629;SDS011;7914;50.842;0.166;2022-09-13T10:18:54;6.57;;;6.03;;
15629;SDS011;7914;50.842;0.166;2022-09-13T10:21:58;6.93;;;6.33;;
15629;SDS011;7914;50.842;0.166;2022-09-13T10:24:25;7.07;;;6.37;;
15629;SDS011;7914;50.842;0.166;2022-09-13T10:26:53;6.93;;;6.33;;
15629;SDS011;7914;50.842;0.166;2022-09-13T10:29:18;7.27;;;6.60;;
15629;SDS011;7914;50.842;0.166;2022-09-13T10:31:45;9.67;;;8.87;;
15629;SDS011;7914;50.842;0.166;2022-09-13T10:34:27;25.60;;;23.73;;
15629;SDS011;7914;50.842;0.166;2022-09-13T10:37:04;31.13;;;28.87;;
15629;SDS011;7914;50.842;0.166;2022-09-13T10:39:38;30.73;;;28.37;;
15629;SDS011;7914;50.842;0.166;2022-09-13T10:42:16;30.90;;;28.90;;
15629;SDS011;7914;50.842;0.166;2022-09-13T10:45:00;31.03;;;28.90;;
15629;SDS011;7914;50.842;0.166;2022-09-13T10:52:51;26.23;;;24.43;;
15629;SDS011;7914;50.842;0.166;2022-09-13T10:57:54;21.20;;;19.40;;
15629;SDS011;7914;50.842;0.166;2022-09-13T11:00:48;21.30;;;19.60;;
15629;SDS011;7914;50.842;0.166;2022-09-13T11:09:21;19.00;;;17.33;;
15629;SDS011;7914;50.842;0.166;2022-09-13T11:23:11;15.53;;;14.40;;
15629;SDS011;7914;50.842;0.166;2022-09-13T11:44:27;13.30;;;12.10;;
15629;SDS011;7914;50.842;0.166;2022-09-13T11:52:59;24.20;;;22.43;;
15629;SDS011;7914;50.842;0.166;2022-09-13T11:55:28;27.03;;;25.20;;
15629;SDS011;7914;50.842;0.166;2022-09-13T11:58:11;30.33;;;28.13;;
15629;SDS011;7914;50.842;0.166;2022-09-13T12:00:44;31.87;;;29.37;;
15629;SDS011;7914;50.842;0.166;2022-09-13T12:05:50;33.10;;;30.53;;
15629;SDS011;7914;50.842;0.166;2022-09-13T12:08:34;33.57;;;31.07;;
15629;SDS011;7914;50.842;0.166;2022-09-13T12:11:07;33.97;;;31.47;;
15629;SDS011;7914;50.842;0.166;2022-09-13T12:13:57;33.93;;;31.13;;
15629;SDS011;7914;50.842;0.166;2022-09-13T12:16:45;32.47;;;30.07;;
15629;SDS011;7914;50.842;0.166;2022-09-13T12:21:54;29.90;;;27.83;;
15629;SDS011;7914;50.842;0.166;2022-09-13T12:27:47;30.27;;;28.17;;
15629;SDS011;7914;50.842;0.166;2022-09-13T12:30:59;29.30;;;27.13;;
15629;SDS011;7914;50.842;0.166;2022-09-13T12:33:25;26.70;;;24.50;;
15629;SDS011;7914;50.842;0.166;2022-09-13T12:36:04;23.17;;;21.30;;
15629;SDS011;7914;50.842;0.166;2022-09-13T12:39:01;20.87;;;19.27;;
15629;SDS011;7914;50.842;0.166;2022-09-13T12:41:45;19.07;;;17.53;;
15629;SDS011;7914;50.842;0.166;2022-09-13T12:44:28;17.63;;;16.17;;
15629;SDS011;7914;50.842;0.166;2022-09-13T12:52:41;15.97;;;14.57;;
15629;SDS011;7914;50.842;0.166;2022-09-13T12:55:30;16.60;;;15.40;;
15629;SDS011;7914;50.842;0.166;2022-09-13T12:58:31;16.60;;;15.37;;
15629;SDS011;7914;50.842;0.166;2022-09-13T13:01:13;17.30;;;15.80;;
15629;SDS011;7914;50.842;0.166;2022-09-13T13:04:07;17.70;;;16.30;;
15629;SDS011;7914;50.842;0.166;2022-09-13T13:06:54;19.13;;;17.77;;
15629;SDS011;7914;50.842;0.166;2022-09-13T13:12:06;17.37;;;15.97;;
15629;SDS011;7914;50.842;0.166;2022-09-13T13:41:54;11.37;;;10.17;;
15629;SDS011;7914;50.842;0.166;2022-09-13T13:46:50;11.40;;;10.40;;
15629;SDS011;7914;50.842;0.166;2022-09-13T14:00:12;11.27;;;8.83;;
15629;SDS011;7914;50.842;0.166;2022-09-13T14:16:36;10.60;;;8.53;;
15629;SDS011;7914;50.842;0.166;2022-09-13T14:24:44;10.03;;;7.50;;
15629;SDS011;7914;50.842;0.166;2022-09-13T14:27:17;7.47;;;6.77;;
15629;SDS011;7914;50.842;0.166;2022-09-13T14:30:00;8.87;;;6.80;;
15629;SDS011;7914;50.842;0.166;2022-09-13T14:32:29;8.13;;;7.20;;
15629;SDS011;7914;50.842;0.166;2022-09-13T14:35:03;11.90;;;6.53;;
15629;SDS011;7914;50.842;0.166;2022-09-13T14:37:33;6.73;;;5.87;;
15629;SDS011;7914;50.842;0.166;2022-09-13T14:40:05;8.33;;;5.97;;
15629;SDS011;7914;50.842;0.166;2022-09-13T14:42:41;9.27;;;6.47;;
15629;SDS011;7914;50.842;0.166;2022-09-13T14:45:16;6.60;;;5.37;;
15629;SDS011;7914;50.842;0.166;2022-09-13T14:47:56;7.67;;;5.87;;
15629;SDS011;7914;50.842;0.166;2022-09-13T14:50:32;10.73;;;6.30;;
15629;SDS011;7914;50.842;0.166;2022-09-13T14:53:09;7.83;;;6.37;;
15629;SDS011;7914;50.842;0.166;2022-09-13T14:55:43;9.67;;;6.17;;
15629;SDS011;7914;50.842;0.166;2022-09-13T14:58:14;8.47;;;6.20;;
15629;SDS011;7914;50.842;0.166;2022-09-13T15:00:55;11.37;;;6.40;;
15629;SDS011;7914;50.842;0.166;2022-09-13T15:03:30;9.67;;;6.17;;
15629;SDS011;7914;50.842;0.166;2022-09-13T15:05:56;10.27;;;6.80;;
15629;SDS011;7914;50.842;0.166;2022-09-13T15:10:59;11.83;;;5.93;;
15629;SDS011;7914;50.842;0.166;2022-09-13T15:13:26;5.97;;;4.97;;
15629;SDS011;7914;50.842;0.166;2022-09-13T15:15:52;6.00;;;5.40;;
15629;SDS011;7914;50.842;0.166;2022-09-13T15:20:54;5.10;;;4.63;;
15629;SDS011;7914;50.842;0.166;2022-09-13T15:23:32;9.13;;;5.30;;
15629;SDS011;7914;50.842;0.166;2022-09-13T15:28:33;8.10;;;4.90;;
15629;SDS011;7914;50.842;0.166;2022-09-13T15:31:23;9.60;;;4.80;;
15629;SDS011;7914;50.842;0.166;2022-09-13T15:36:41;6.03;;;4.70;;
15629;SDS011;7914;50.842;0.166;2022-09-13T15:41:37;8.33;;;5.07;;
15629;SDS011;7914;50.842;0.166;2022-09-13T15:44:15;7.30;;;4.70;;
15629;SDS011;7914;50.842;0.166;2022-09-13T15:46:48;9.37;;;5.60;;
15629;SDS011;7914;50.842;0.166;2022-09-13T15:49:19;7.27;;;5.47;;
15629;SDS011;7914;50.842;0.166;2022-09-13T15:52:00;6.03;;;5.40;;
15629;SDS011;7914;50.842;0.166;2022-09-13T15:54:31;7.70;;;5.50;;
15629;SDS011;7914;50.842;0.166;2022-09-13T15:56:57;6.50;;;5.60;;
15629;SDS011;7914;50.842;0.166;2022-09-13T15:59:23;8.87;;;6.07;;
15629;SDS011;7914;50.842;0.166;2022-09-13T16:01:50;6.60;;;5.63;;
15629;SDS011;7914;50.842;0.166;2022-09-13T16:04:16;10.13;;;6.90;;
15629;SDS011;7914;50.842;0.166;2022-09-13T16:06:43;8.63;;;7.77;;
15629;SDS011;7914;50.842;0.166;2022-09-13T16:09:22;9.00;;;8.30;;
15629;SDS011;7914;50.842;0.166;2022-09-13T16:11:49;8.93;;;8.23;;
15629;SDS011;7914;50.842;0.166;2022-09-13T16:14:16;9.60;;;8.30;;
15629;SDS011;7914;50.842;0.166;2022-09-13T16:16:43;7.80;;;6.90;;
15629;SDS011;7914;50.842;0.166;2022-09-13T16:19:14;6.23;;;5.70;;
15629;SDS011;7914;50.842;0.166;2022-09-13T16:21:41;9.47;;;5.87;;
15629;SDS011;7914;50.842;0.166;2022-09-13T16:24:07;7.43;;;5.20;;
15629;SDS011;7914;50.842;0.166;2022-09-13T16:26:33;7.13;;;4.80;;
15629;SDS011;7914;50.842;0.166;2022-09-13T16:28:59;4.83;;;4.33;;
15629;SDS011;7914;50.842;0.166;2022-09-13T16:31:25;5.17;;;4.63;;
15629;SDS011;7914;50.842;0.166;2022-09-13T16:33:50;6.17;;;4.63;;
15629;SDS011;7914;50.842;0.166;2022-09-13T16:36:16;7.00;;;5.47;;
15629;SDS011;7914;50.842;0.166;2022-09-13T16:38:42;7.37;;;4.93;;
15629;SDS011;7914;50.842;0.166;2022-09-13T16:41:08;10.50;;;5.07;;
15629;SDS011;7914;50.842;0.166;2022-09-13T16:43:34;7.93;;;5.80;;
15629;SDS011;7914;50.842;0.166;2022-09-13T16:46:06;5.60;;;5.13;;
15629;SDS011;7914;50.842;0.166;2022-09-13T16:48:33;6.93;;;5.60;;
15629;SDS011;7914;50.842;0.166;2022-09-13T16:51:02;7.37;;;5.70;;
15629;SDS011;7914;50.842;0.166;2022-09-13T16:53:32;8.63;;;4.93;;
15629;SDS011;7914;50.842;0.166;2022-09-13T16:58:30;5.20;;;4.50;;
15629;SDS011;7914;50.842;0.166;2022-09-13T17:00:56;8.23;;;4.93;;
15629;SDS011;7914;50.842;0.166;2022-09-13T17:03:22;5.93;;;4.70;;
15629;SDS011;7914;50.842;0.166;2022-09-13T17:05:56;6.30;;;4.60;;
15629;SDS011;7914;50.842;0.166;2022-09-13T17:08:25;7.20;;;4.90;;
15629;SDS011;7914;50.842;0.166;2022-09-13T17:10:51;7.87;;;5.00;;
15629;SDS011;7914;50.842;0.166;2022-09-13T17:13:17;8.47;;;4.83;;
15629;SDS011;7914;50.842;0.166;2022-09-13T17:15:47;7.13;;;4.93;;
15629;SDS011;7914;50.842;0.166;2022-09-13T17:18:14;5.27;;;4.17;;
15629;SDS011;7914;50.842;0.166;2022-09-13T17:20:43;6.77;;;4.17;;
15629;SDS011;7914;50.842;0.166;2022-09-13T17:23:10;6.43;;;4.10;;
15629;SDS011;7914;50.842;0.166;2022-09-13T17:25:36;6.60;;;3.77;;
15629;SDS011;7914;50.842;0.166;2022-09-13T17:28:04;7.30;;;3.67;;
15629;SDS011;7914;50.842;0.166;2022-09-13T17:30:30;7.17;;;3.50;;
15629;SDS011;7914;50.842;0.166;2022-09-13T17:32:55;4.90;;;3.70;;
15629;SDS011;7914;50.842;0.166;2022-09-13T17:35:24;3.60;;;3.30;;
15629;SDS011;7914;50.842;0.166;2022-09-13T17:37:49;4.43;;;3.13;;
15629;SDS011;7914;50.842;0.166;2022-09-13T17:40:15;7.97;;;2.83;;
15629;SDS011;7914;50.842;0.166;2022-09-13T17:42:41;4.53;;;3.10;;
15629;SDS011;7914;50.842;0.166;2022-09-13T17:45:07;7.50;;;2.87;;
15629;SDS011;7914;50.842;0.166;2022-09-13T17:47:33;4.93;;;3.00;;
15629;SDS011;7914;50.842;0.166;2022-09-13T17:49:59;9.83;;;3.40;;
15629;SDS011;7914;50.842;0.166;2022-09-13T17:52:26;5.87;;;2.87;;
15629;SDS011;7914;50.842;0.166;2022-09-13T17:54:51;6.80;;;3.17;;
15629;SDS011;7914;50.842;0.166;2022-09-13T17:57:18;6.20;;;3.10;;
15629;SDS011;7914;50.842;0.166;2022-09-13T17:59:44;4.63;;;2.77;;
15629;SDS011;7914;50.842;0.166;2022-09-13T18:02:11;11.47;;;3.70;;
15629;SDS011;7914;50.842;0.166;2022-09-13T18:04:37;7.47;;;2.97;;
15629;SDS011;7914;50.842;0.166;2022-09-13T18:07:02;5.30;;;3.00;;
15629;SDS011;7914;50.842;0.166;2022-09-13T18:09:28;6.20;;;3.13;;
15629;SDS011;7914;50.842;0.166;2022-09-13T18:11:54;5.90;;;2.50;;
15629;SDS011;7914;50.842;0.166;2022-09-13T18:14:19;5.43;;;2.67;;
15629;SDS011;7914;50.842;0.166;2022-09-13T18:16:46;9.53;;;2.90;;
15629;SDS011;7914;50.842;0.166;2022-09-13T18:19:19;3.73;;;2.93;;
15629;SDS011;7914;50.842;0.166;2022-09-13T18:21:45;6.43;;;2.70;;
15629;SDS011;7914;50.842;0.166;2022-09-13T18:24:10;3.33;;;2.40;;
15629;SDS011;7914;50.842;0.166;2022-09-13T18:26:36;7.57;;;2.80;;
15629;SDS011;7914;50.842;0.166;2022-09-13T18:29:03;4.83;;;2.50;;
15629;SDS011;7914;50.842;0.166;2022-09-13T18:31:32;4.10;;;3.00;;
15629;SDS011;7914;50.842;0.166;2022-09-13T18:33:59;8.90;;;3.00;;
15629;SDS011;7914;50.842;0.166;2022-09-13T18:36:28;4.80;;;2.77;;
15629;SDS011;7914;50.842;0.166;2022-09-13T18:38:57;6.77;;;3.00;;
15629;SDS011;7914;50.842;0.166;2022-09-13T18:41:28;4.33;;;3.10;;
15629;SDS011;7914;50.842;0.166;2022-09-13T18:43:59;5.23;;;2.50;;
15629;SDS011;7914;50.842;0.166;2022-09-13T18:46:26;5.67;;;2.60;;